Terminal Aerodrome Forecast
Issued by NWS Brownsville, TX

Home | Current Version | Previous Version | Text Only | Print | Product List | Glossary On
Versions: 1 2 3 4 5 6 7 8 9 10 11 12 13 14 15 16 17 18 19 20
000
FTUS44 KBRO 181700
TAFHRL
TAF
KHRL 181721Z 1818/1918 04012KT P6SM BKN025
      TEMPO 1818/1820 -RA BKN018
     FM190000 07008KT P6SM BKN040
     FM191600 10012KT P6SM SCT025=

USA.gov is the U.S. government's official web portal to all federal, state and local government web resources and services.